Time;durP1;ratioP1;P1;durP2;ratioP2;P2;SDS_P1;SDS_P2;PMS_P1;PMS_P2;Temp;Humidity;BMP_temperature;BMP_pressure;BME280_temperature;BME280_humidity;BME280_pressure;Samples;Min_cycle;Max_cycle;Signal;HPM_P1;HPM_P2
2022/06/18 00:01:56;;;;;;;7.90;5.60;;;;;;;26.93;55.07;101462.06;5076841;28;20056;-79
2022/06/18 00:04:24;;;;;;;5.93;5.32;;;;;;;26.96;55.11;101459.88;5075188;28;20053;-80
2022/06/18 00:06:56;;;;;;;6.68;5.20;;;;;;;26.97;55.28;101466.16;5109211;28;20075;-79
2022/06/18 00:09:57;;;;;;;5.63;4.82;;;;;;;26.99;55.02;101470.44;5077490;28;20067;-79
2022/06/18 00:15:23;;;;;;;5.47;4.85;;;;;;;27.04;55.19;101461.78;5077155;28;20055;-79
2022/06/18 00:17:52;;;;;;;7.35;5.40;;;;;;;27.03;55.20;101463.63;5077604;28;20105;-79
2022/06/18 00:20:22;;;;;;;8.38;6.13;;;;;;;27.06;54.90;101459.72;5076818;28;20395;-79
2022/06/18 00:22:54;;;;;;;7.88;6.05;;;;;;;27.06;55.03;101470.59;5077388;28;20048;-80
2022/06/18 00:25:32;;;;;;;8.35;6.15;;;;;;;27.07;55.11;101478.59;5077073;28;20060;-80
2022/06/18 00:28:01;;;;;;;5.93;5.32;;;;;;;27.08;55.35;101484.88;5076966;28;20057;-79
2022/06/18 00:30:30;;;;;;;6.60;6.00;;;;;;;27.09;55.08;101487.41;5077085;28;20492;-80
2022/06/18 00:32:57;;;;;;;6.57;5.15;;;;;;;27.10;55.35;101485.56;5076384;28;20368;-80
2022/06/18 00:35:25;;;;;;;6.15;5.65;;;;;;;27.11;55.20;101490.00;5074434;28;20056;-79
2022/06/18 00:37:56;;;;;;;6.72;6.00;;;;;;;27.11;55.14;101496.28;5076388;28;20052;-79
2022/06/18 00:40:28;;;;;;;6.63;5.80;;;;;;;27.13;55.08;101489.84;5077136;28;20411;-79
2022/06/18 00:42:59;;;;;;;6.18;5.57;;;;;;;27.13;55.20;101501.56;5076890;28;20071;-78
2022/06/18 00:45:29;;;;;;;6.47;5.70;;;;;;;27.14;55.27;101489.66;5108763;28;20385;-78
2022/06/18 00:48:14;;;;;;;7.28;5.90;;;;;;;27.15;55.31;101487.81;5076948;28;20060;-78
2022/06/18 00:50:57;;;;;;;6.20;5.60;;;;;;;27.16;55.56;101492.22;5074803;28;20052;-77
2022/06/18 00:53:36;;;;;;;6.25;4.85;;;;;;;27.16;55.59;101494.94;5074311;28;20495;-77
2022/06/18 00:56:09;;;;;;;6.28;5.47;;;;;;;27.16;55.48;101487.63;5076682;28;20042;-77
2022/06/18 00:58:43;;;;;;;6.13;5.07;;;;;;;27.16;55.56;101492.22;5075974;28;20044;-78
2022/06/18 01:01:21;;;;;;;5.82;5.22;;;;;;;27.17;55.62;101493.91;5076410;28;20063;-77
2022/06/18 01:03:50;;;;;;;5.78;5.18;;;;;;;27.17;55.54;101502.91;5057251;28;20053;-77
2022/06/18 01:06:30;;;;;;;6.22;5.47;;;;;;;27.18;55.29;101506.47;5074283;28;20052;-77
2022/06/18 01:09:03;;;;;;;7.82;5.40;;;;;;;27.17;55.30;101507.50;5076459;28;20056;-77
2022/06/18 01:11:35;;;;;;;8.10;5.60;;;;;;;27.17;55.28;101511.06;5074686;28;20381;-77
2022/06/18 01:14:06;;;;;;;6.18;5.57;;;;;;;27.18;55.64;101501.03;5075984;28;20400;-78
2022/06/18 01:16:36;;;;;;;7.28;5.53;;;;;;;27.18;55.70;101503.75;5073842;28;20399;-78
2022/06/18 01:19:15;;;;;;;7.15;5.53;;;;;;;27.18;55.45;101495.59;5073693;28;20071;-78
2022/06/18 01:22:12;;;;;;;6.00;5.30;;;;;;;27.18;55.32;101504.59;5073769;28;20051;-78
2022/06/18 01:24:44;;;;;;;4.80;4.40;;;;;;;27.20;55.68;101507.19;5056494;28;20060;-78
2022/06/18 01:27:13;;;;;;;7.63;5.28;;;;;;;27.20;55.41;101504.47;5056642;28;20044;-77
2022/06/18 01:29:42;;;;;;;5.95;5.38;;;;;;;27.19;55.57;101509.06;5056574;28;20064;-77
2022/06/18 01:32:13;;;;;;;6.22;5.63;;;;;;;27.21;55.44;101506.16;5055895;28;20450;-77
2022/06/18 01:34:43;;;;;;;6.85;5.60;;;;;;;27.20;55.70;101509.91;5055624;28;20451;-77
2022/06/18 01:37:12;;;;;;;6.25;4.85;;;;;;;27.20;55.23;101507.19;5055752;28;20489;-77
2022/06/18 01:39:42;;;;;;;5.57;5.07;;;;;;;27.21;55.53;101508.88;5056397;28;20155;-77
2022/06/18 01:42:32;;;;;;;5.63;5.13;;;;;;;27.21;55.33;101514.31;5073320;28;20512;-77
2022/06/18 01:45:06;;;;;;;5.80;5.18;;;;;;;27.20;55.31;101512.63;5056123;28;20550;-77
2022/06/18 01:47:58;;;;;;;7.70;5.40;;;;;;;27.20;55.47;101510.75;5056001;28;20048;-77
2022/06/18 01:50:34;;;;;;;6.03;5.25;;;;;;;27.21;55.51;101508.88;5055784;28;20056;-77
2022/06/18 01:53:13;;;;;;;6.18;5.57;;;;;;;27.21;55.71;101514.31;5055910;28;20052;-78
2022/06/18 01:55:49;;;;;;;6.00;5.20;;;;;;;27.21;55.33;101511.59;5056066;28;20064;-80
2022/06/18 01:58:22;;;;;;;6.90;5.68;;;;;;;27.21;55.38;101512.44;5073328;28;20503;-79
2022/06/18 02:00:55;;;;;;;5.82;4.85;;;;;;;27.22;55.40;101502.41;5056171;28;20082;-79
2022/06/18 02:03:25;;;;;;;6.60;5.68;;;;;;;27.22;55.47;101507.84;5075356;28;20055;-80
2022/06/18 02:05:53;;;;;;;5.88;5.28;;;;;;;27.21;55.58;101500.72;5072967;28;20408;-79
2022/06/18 02:08:21;;;;;;;6.32;5.72;;;;;;;27.21;55.42;101504.28;5072767;28;20064;-80
2022/06/18 02:10:54;;;;;;;5.65;5.15;;;;;;;27.22;55.60;101502.41;5072595;28;20052;-80
2022/06/18 02:13:25;;;;;;;5.78;5.00;;;;;;;27.23;55.57;101504.13;5072799;28;20127;-80
2022/06/18 02:15:55;;;;;;;6.33;5.40;;;;;;;27.21;55.50;101507.00;5071708;28;20048;-80
2022/06/18 02:18:24;;;;;;;5.75;5.25;;;;;;;27.22;55.57;101508.69;5072855;28;20056;-80
2022/06/18 02:20:54;;;;;;;7.80;5.88;;;;;;;27.22;55.40;101507.84;5074628;28;20048;-79
2022/06/18 02:23:23;;;;;;;5.95;5.40;;;;;;;27.22;55.57;101511.41;5073606;28;20052;-80
2022/06/18 02:25:51;;;;;;;5.65;5.13;;;;;;;27.22;55.22;101508.69;5075027;28;20049;-83
2022/06/18 02:28:23;;;;;;;5.72;5.20;;;;;;;27.22;55.47;101508.69;5074479;28;20067;-80
2022/06/18 02:30:55;;;;;;;;;;;;;;;27.23;55.38;101509.56;5073086;28;20526;-81
2022/06/18 02:33:46;;;;;;;5.80;5.30;;;;;;;27.22;55.32;101518.72;5072765;28;20360;-80
2022/06/18 02:36:20;;;;;;;5.40;4.88;;;;;;;27.23;55.50;101532.16;5074576;28;20040;-80
2022/06/18 02:38:56;;;;;;;6.07;5.47;;;;;;;27.22;55.54;101527.72;5106219;28;20051;-81
2022/06/18 02:41:25;;;;;;;6.05;5.43;;;;;;;27.24;55.42;101527.56;5072350;28;20412;-80
2022/06/18 02:43:52;;;;;;;6.40;5.75;;;;;;;27.23;55.40;101529.44;5073840;28;20045;-82
2022/06/18 02:46:20;;;;;;;6.72;5.60;;;;;;;27.23;55.14;101528.59;5106409;28;20055;-81
2022/06/18 02:48:48;;;;;;;6.20;5.60;;;;;;;27.21;55.26;101531.47;5074544;28;20051;-81
2022/06/18 02:51:15;;;;;;;6.50;5.57;;;;;;;27.22;54.84;101532.31;5105910;28;20048;-81
2022/06/18 02:53:43;;;;;;;6.20;5.47;;;;;;;27.21;55.19;101530.63;5074685;28;20045;-83
2022/06/18 02:56:14;;;;;;;6.63;6.03;;;;;;;27.21;55.01;101538.78;5089779;28;20499;-81
2022/06/18 02:58:45;;;;;;;8.57;6.35;;;;;;;27.21;55.00;101538.78;5072139;28;20097;-80
2022/06/18 03:01:16;;;;;;;6.15;5.57;;;;;;;27.20;54.80;101528.94;5073671;28;20395;-80
2022/06/18 03:03:50;;;;;;;6.85;5.97;;;;;;;27.21;54.71;101530.63;5071861;28;20048;-80
2022/06/18 03:06:21;;;;;;;8.50;6.10;;;;;;;27.20;54.99;101531.66;5072452;28;20055;-80
2022/06/18 03:08:49;;;;;;;6.90;6.20;;;;;;;27.21;55.18;101533.34;5071707;28;20522;-80
2022/06/18 03:14:07;;;;;;;6.97;6.15;;;;;;;27.18;55.06;101537.22;5073722;28;20396;-80
2022/06/18 03:16:35;;;;;;;7.05;6.32;;;;;;;27.19;55.02;101538.09;5071523;28;20055;-80
2022/06/18 03:19:04;;;;;;;7.40;6.07;;;;;;;27.18;55.00;101534.50;5071596;28;20388;-80
2022/06/18 03:21:44;;;;;;;6.57;6.00;;;;;;;27.19;54.98;101540.81;5071716;28;20514;-80
2022/06/18 03:24:11;;;;;;;9.00;6.47;;;;;;;27.18;54.98;101541.81;5074028;28;20051;-80
2022/06/18 03:26:39;;;;;;;8.10;6.47;;;;;;;27.18;54.95;101542.66;5071799;28;20064;-80
2022/06/18 03:29:16;;;;;;;7.90;6.60;;;;;;;27.18;54.89;101544.53;5072526;28;20052;-80
2022/06/18 03:31:44;;;;;;;7.03;6.32;;;;;;;27.17;54.91;101546.41;5106145;28;20431;-80
2022/06/18 03:34:11;;;;;;;7.35;5.78;;;;;;;27.17;54.81;101549.13;5073744;28;20158;-80
2022/06/18 03:36:38;;;;;;;6.50;5.85;;;;;;;27.17;54.62;101545.56;5055220;28;20053;-80
2022/06/18 03:39:07;;;;;;;6.05;5.55;;;;;;;27.16;54.54;101543.88;5071419;28;20496;-80
2022/06/18 03:41:36;;;;;;;7.07;6.25;;;;;;;27.16;54.56;101552.88;5072944;28;20040;-80
2022/06/18 03:44:04;;;;;;;7.28;5.85;;;;;;;27.17;54.63;101554.56;5073072;28;20043;-81
2022/06/18 03:46:36;;;;;;;7.00;6.25;;;;;;;27.16;54.86;101549.31;5071549;28;20063;-81
2022/06/18 03:49:09;;;;;;;7.97;6.47;;;;;;;27.15;54.61;101551.19;5071556;28;20059;-81
2022/06/18 03:51:36;;;;;;;6.53;5.95;;;;;;;27.16;55.10;101552.03;5105072;28;20059;-80
2022/06/18 03:54:05;;;;;;;6.80;6.13;;;;;;;27.15;55.13;101561.19;5105200;28;20052;-81
2022/06/18 03:56:32;;;;;;;10.27;5.88;;;;;;;27.15;55.03;101572.94;5073179;28;20056;-81
2022/06/18 03:59:03;;;;;;;7.10;6.40;;;;;;;27.16;55.56;101571.06;5071450;28;20400;-81
2022/06/18 04:01:36;;;;;;;7.65;6.50;;;;;;;27.15;55.40;101588.38;5071785;28;20063;-80
2022/06/18 04:04:04;;;;;;;8.23;6.18;;;;;;;27.15;55.11;101583.78;5071131;28;20512;-80
2022/06/18 04:06:44;;;;;;;8.07;6.57;;;;;;;27.13;55.07;101583.09;5073341;28;20040;-80
2022/06/18 04:09:30;;;;;;;6.07;5.47;;;;;;;27.12;55.17;101584.13;5080337;28;20486;-80
2022/06/18 04:11:59;;;;;;;6.45;5.82;;;;;;;27.11;55.23;101575.13;5071147;28;20063;-80
2022/06/18 04:14:26;;;;;;;7.75;6.25;;;;;;;27.10;54.69;101573.44;5071271;28;20404;-80
2022/06/18 04:17:19;;;;;;;8.90;6.70;;;;;;;27.11;54.72;101568.84;5105159;28;20060;-80
2022/06/18 04:19:48;;;;;;;7.88;5.65;;;;;;;27.10;55.14;101570.72;5105135;28;20107;-80
2022/06/18 04:22:17;;;;;;;6.50;5.90;;;;;;;27.11;55.12;101568.84;5104879;28;20052;-80
2022/06/18 04:24:55;;;;;;;6.68;6.07;;;;;;;27.10;55.07;101564.38;5071685;28;20064;-80
2022/06/18 04:27:22;;;;;;;6.93;6.22;;;;;;;27.11;54.98;101577.00;5070820;28;20419;-81
2022/06/18 04:29:49;;;;;;;7.28;6.00;;;;;;;27.09;55.26;101574.38;5073288;28;20482;-81
2022/06/18 04:32:18;;;;;;;7.10;6.22;;;;;;;27.09;54.99;101568.09;5070841;28;20063;-81
2022/06/18 04:34:46;;;;;;;8.82;6.72;;;;;;;27.10;55.37;101575.25;5105492;28;20384;-81
2022/06/18 04:37:23;;;;;;;6.97;6.28;;;;;;;27.10;55.73;101575.25;5104664;28;20064;-81
2022/06/18 04:40:22;;;;;;;7.95;7.15;;;;;;;27.09;55.64;101579.81;5075320;28;20049;-81
2022/06/18 04:43:15;;;;;;;7.05;6.28;;;;;;;27.09;55.17;101581.69;5074898;28;20063;-81
2022/06/18 04:45:48;;;;;;;9.02;7.00;;;;;;;27.08;55.35;101582.72;5074927;28;20408;-80
2022/06/18 04:48:21;;;;;;;6.97;6.28;;;;;;;27.08;54.97;101583.56;5074654;28;20056;-80
2022/06/18 04:50:50;;;;;;;6.75;6.00;;;;;;;27.08;55.44;101582.72;5108244;28;20048;-81
2022/06/18 04:53:19;;;;;;;7.15;6.45;;;;;;;27.09;55.68;101576.25;5074237;28;20045;-81
2022/06/18 04:55:52;;;;;;;7.13;6.22;;;;;;;27.09;56.00;101577.09;5074070;28;20049;-81
2022/06/18 04:58:19;;;;;;;7.47;6.78;;;;;;;27.08;55.99;101575.41;5074164;28;20052;-81
2022/06/18 05:00:54;;;;;;;9.18;6.60;;;;;;;27.10;55.74;101583.41;5090293;28;20052;-80
2022/06/18 05:03:44;;;;;;;7.80;7.10;;;;;;;27.10;55.42;101583.41;5075576;28;20052;-81
2022/06/18 05:06:26;;;;;;;8.82;7.70;;;;;;;27.08;55.52;101582.72;5108272;28;20052;-80
2022/06/18 05:09:19;;;;;;;8.93;8.05;;;;;;;27.07;55.30;101579.16;5075946;28;20049;-80
2022/06/18 05:11:58;;;;;;;10.18;8.63;;;;;;;27.07;55.84;101583.75;5107979;28;20060;-80
2022/06/18 05:14:46;;;;;;;8.90;7.78;;;;;;;27.07;55.81;101587.31;5074419;28;20096;-81
2022/06/18 05:17:21;;;;;;;9.27;8.35;;;;;;;27.07;55.92;101578.31;5107816;28;20052;-81
2022/06/18 05:19:50;;;;;;;9.43;8.52;;;;;;;27.06;55.77;101584.72;5073947;28;20079;-81
2022/06/18 05:22:18;;;;;;;10.50;9.52;;;;;;;27.03;55.50;101580.50;5073968;28;20049;-81
2022/06/18 05:24:46;;;;;;;9.65;8.73;;;;;;;27.01;55.42;101582.50;5073611;28;20049;-81
2022/06/18 05:27:26;;;;;;;9.43;8.63;;;;;;;27.00;55.56;101582.69;5073678;28;20067;-81
2022/06/18 05:29:54;;;;;;;8.98;8.18;;;;;;;27.01;56.07;101581.66;5107789;28;20059;-81
2022/06/18 05:32:27;;;;;;;10.43;9.43;;;;;;;27.01;55.89;101581.66;5073533;28;20056;-81
2022/06/18 05:34:54;;;;;;;9.13;8.23;;;;;;;27.01;55.92;101578.94;5090431;28;20045;-81
2022/06/18 05:37:25;;;;;;;9.75;8.90;;;;;;;27.02;56.17;101586.94;5073857;28;20500;-81
2022/06/18 05:39:52;;;;;;;10.88;9.90;;;;;;;27.02;55.79;101588.78;5073681;28;20053;-81
2022/06/18 05:42:21;;;;;;;10.30;9.35;;;;;;;27.02;55.90;101589.66;5074176;28;20048;-81
2022/06/18 05:44:49;;;;;;;10.10;9.10;;;;;;;27.01;56.19;101596.09;5074288;28;20067;-80
2022/06/18 05:47:20;;;;;;;9.63;8.85;;;;;;;27.02;55.87;101592.38;5075149;28;20044;-80
2022/06/18 05:49:49;;;;;;;10.43;9.38;;;;;;;27.02;56.39;101589.66;5090671;28;20417;-81
2022/06/18 05:52:17;;;;;;;10.07;9.07;;;;;;;27.03;56.69;101595.94;5089850;28;20052;-81
2022/06/18 05:54:45;;;;;;;11.10;9.93;;;;;;;27.03;56.74;101590.53;5073279;28;20044;-81
2022/06/18 05:57:31;;;;;;;12.88;9.50;;;;;;;27.03;56.79;101591.38;5082325;28;20059;-80
2022/06/18 06:00:18;;;;;;;11.25;10.25;;;;;;;27.04;56.62;101589.50;5073550;28;20052;-80
2022/06/18 06:02:49;;;;;;;10.60;9.50;;;;;;;27.02;56.39;101595.09;5073352;28;20048;-80
2022/06/18 06:05:18;;;;;;;10.85;9.95;;;;;;;27.01;56.97;101598.81;5073166;28;20056;-80
2022/06/18 06:07:49;;;;;;;11.25;10.13;;;;;;;27.01;56.77;101604.25;5073131;28;20045;-81
2022/06/18 06:13:26;;;;;;;11.48;9.98;;;;;;;27.04;56.61;101614.81;5073688;28;20045;-79
2022/06/18 06:15:54;;;;;;;10.93;9.82;;;;;;;27.04;56.52;101613.94;5072664;28;20416;-79
2022/06/18 06:18:27;;;;;;;10.32;9.43;;;;;;;27.04;56.66;101619.38;5107372;28;20048;-81
2022/06/18 06:20:56;;;;;;;9.90;8.98;;;;;;;27.05;56.58;101627.38;5074504;28;20053;-81
2022/06/18 06:23:23;;;;;;;10.57;9.57;;;;;;;27.05;56.64;101632.81;5074224;28;20499;-81
2022/06/18 06:25:51;;;;;;;11.20;9.48;;;;;;;27.05;56.52;101632.81;5074752;28;20051;-80
2022/06/18 06:28:22;;;;;;;10.90;9.90;;;;;;;27.07;56.79;101627.22;5074205;28;20050;-81
2022/06/18 06:30:50;;;;;;;11.10;9.93;;;;;;;27.07;56.61;101627.22;5074343;28;20044;-80
2022/06/18 06:33:18;;;;;;;10.43;9.57;;;;;;;27.08;56.34;101623.47;5107056;28;20036;-82
2022/06/18 06:35:46;;;;;;;10.88;9.20;;;;;;;27.09;56.70;101627.91;5073996;28;20488;-81
2022/06/18 06:38:15;;;;;;;8.93;8.20;;;;;;;27.10;56.62;101626.91;5074302;28;20045;-81
2022/06/18 06:40:43;;;;;;;10.57;9.57;;;;;;;27.10;56.28;101635.06;5075082;28;20048;-81
2022/06/18 06:43:13;;;;;;;9.88;8.95;;;;;;;27.10;56.37;101627.78;5074079;28;20476;-80
2022/06/18 06:45:41;;;;;;;9.68;8.90;;;;;;;27.11;56.14;101631.34;5089011;28;20048;-80
2022/06/18 06:48:09;;;;;;;10.25;9.25;;;;;;;27.11;56.63;101620.47;5074570;28;20059;-80
2022/06/18 06:50:37;;;;;;;9.65;8.70;;;;;;;27.12;56.29;101624.88;5073723;28;20059;-80
2022/06/18 06:53:04;;;;;;;10.68;9.60;;;;;;;27.14;56.26;101619.28;5073806;28;20052;-80
2022/06/18 06:58:22;;;;;;;9.73;8.77;;;;;;;27.15;56.64;101613.69;5074151;28;20055;-80
2022/06/18 07:00:56;;;;;;;10.65;9.60;;;;;;;27.15;56.11;101613.69;5073481;28;20419;-81
2022/06/18 07:03:32;;;;;;;9.55;8.73;;;;;;;27.14;53.15;101600.25;5073448;28;20464;-81
2022/06/18 07:06:01;;;;;;;9.82;8.75;;;;;;;27.07;52.84;101598.16;5074208;28;20058;-82
2022/06/18 07:08:30;;;;;;;9.15;8.30;;;;;;;27.05;52.73;101613.78;5073349;28;20071;-77
2022/06/18 07:10:58;;;;;;;12.80;9.07;;;;;;;27.02;52.40;101607.81;5073215;28;20044;-78
2022/06/18 07:13:29;;;;;;;9.95;9.15;;;;;;;26.97;52.61;101608.31;5074060;28;20037;-77
2022/06/18 07:15:57;;;;;;;11.05;9.55;;;;;;;26.96;53.01;101614.78;5074190;28;20056;-80
2022/06/18 07:18:31;;;;;;;9.60;8.85;;;;;;;26.93;53.00;101616.97;5074231;28;20570;-79
2022/06/18 07:21:00;;;;;;;11.07;8.98;;;;;;;26.92;53.25;101616.09;5074404;28;20047;-78
2022/06/18 07:23:28;;;;;;;9.65;8.60;;;;;;;26.92;53.12;101615.25;5074394;28;20476;-79
2022/06/18 07:25:55;;;;;;;9.32;8.43;;;;;;;26.90;53.37;101614.56;5072481;28;20361;-81
2022/06/18 07:28:24;;;;;;;9.90;8.95;;;;;;;26.89;53.66;101616.44;5074106;28;20055;-79
2022/06/18 07:30:51;;;;;;;10.93;9.52;;;;;;;26.90;53.86;101617.28;5107201;28;20049;-79
2022/06/18 07:33:22;;;;;;;10.45;9.45;;;;;;;26.91;53.79;101614.41;5075688;28;20063;-79
2022/06/18 07:35:50;;;;;;;10.77;9.05;;;;;;;26.91;53.65;101599.97;5092082;28;20053;-80
2022/06/18 07:38:18;;;;;;;10.40;9.10;;;;;;;26.94;53.64;101603.22;5075629;28;20044;-79
2022/06/18 07:40:50;;;;;;;10.20;9.18;;;;;;;26.94;53.84;101600.50;5075852;28;20123;-79
2022/06/18 07:43:40;;;;;;;11.88;8.10;;;;;;;26.97;54.31;101602.03;5075732;28;20044;-79
2022/06/18 07:46:12;;;;;;;10.80;8.38;;;;;;;26.98;52.54;101603.72;5072211;28;20052;-79
2022/06/18 07:48:41;;;;;;;8.85;8.07;;;;;;;26.99;52.26;101603.56;5071571;28;20049;-80
2022/06/18 07:51:09;;;;;;;9.02;7.70;;;;;;;27.00;52.34;101601.72;5072865;28;20052;-79
2022/06/18 07:53:36;;;;;;;11.13;8.05;;;;;;;27.01;52.43;101595.25;5071411;28;20048;-80
2022/06/18 07:56:04;;;;;;;9.02;7.57;;;;;;;27.04;52.37;101597.66;5072938;28;20055;-79
2022/06/18 07:58:32;;;;;;;8.05;6.75;;;;;;;27.05;52.36;101589.31;5073384;28;20048;-79
2022/06/18 08:00:59;;;;;;;7.65;6.88;;;;;;;27.06;52.43;101582.88;5073652;28;20055;-79
2022/06/18 08:03:26;;;;;;;7.88;6.43;;;;;;;27.10;52.75;101586.13;5073575;28;20060;-79
2022/06/18 08:05:55;;;;;;;9.00;7.28;;;;;;;27.10;52.29;101580.69;5074068;28;20053;-79
2022/06/18 08:08:22;;;;;;;9.63;7.00;;;;;;;27.11;51.46;101577.84;5073076;28;20395;-79
2022/06/18 08:11:10;;;;;;;7.35;6.10;;;;;;;27.14;51.71;101581.22;5073279;28;20483;-79
2022/06/18 08:13:37;;;;;;;9.60;6.60;;;;;;;27.17;50.33;101580.91;5073518;28;20044;-80
2022/06/18 08:16:05;;;;;;;6.47;5.82;;;;;;;27.20;51.37;101575.13;5076009;28;20472;-79
2022/06/18 08:18:32;;;;;;;6.80;5.80;;;;;;;27.23;51.06;101578.38;5076013;28;20052;-80
2022/06/18 08:21:05;;;;;;;6.22;5.63;;;;;;;27.26;50.67;101582.63;5076633;28;20060;-79
2022/06/18 08:23:34;;;;;;;7.57;5.20;;;;;;;27.28;50.80;101572.44;5076791;28;20056;-81
2022/06/18 08:26:04;;;;;;;6.63;5.63;;;;;;;27.31;51.32;101566.69;5076800;28;20040;-80
2022/06/18 08:28:31;;;;;;;6.55;5.38;;;;;;;27.34;51.81;101571.75;5077019;28;20045;-80
2022/06/18 08:31:01;;;;;;;8.02;5.38;;;;;;;27.33;52.08;101562.75;5076796;28;20052;-79
2022/06/18 08:33:29;;;;;;;5.78;5.18;;;;;;;27.33;52.31;101570.91;5076969;28;20480;-83
2022/06/18 08:35:59;;;;;;;5.18;4.68;;;;;;;27.34;52.18;101575.31;5075699;28;20059;-79
2022/06/18 08:38:28;;;;;;;5.15;4.70;;;;;;;27.34;52.58;101572.59;5076942;28;20067;-81
2022/06/18 08:41:23;;;;;;;6.63;5.53;;;;;;;27.35;51.30;101571.59;5076735;28;20064;-79
2022/06/18 08:44:09;;;;;;;5.53;5.03;;;;;;;27.37;51.69;101576.88;5075353;28;20391;-81
2022/06/18 08:47:01;;;;;;;6.40;5.32;;;;;;;27.40;51.65;101570.25;5076639;28;20495;-80
2022/06/18 08:49:37;;;;;;;6.40;4.40;;;;;;;27.39;51.93;101572.13;5076647;28;20049;-79
2022/06/18 08:52:27;;;;;;;5.53;5.03;;;;;;;27.38;51.82;101567.69;5076720;28;20400;-78
2022/06/18 08:55:13;;;;;;;7.40;4.22;;;;;;;27.38;52.18;101567.69;5076675;28;20049;-78
2022/06/18 08:58:05;;;;;;;5.40;4.50;;;;;;;27.41;50.63;101566.50;5077028;28;20396;-77
2022/06/18 09:00:55;;;;;;;6.23;4.93;;;;;;;27.46;49.47;101564.13;5072700;28;20044;-88
2022/06/18 09:03:26;;;;;;;5.85;4.68;;;;;;;27.48;50.17;101570.25;5109992;28;20403;-85
2022/06/18 09:06:31;;;;;;;5.10;4.60;;;;;;;27.50;50.01;101569.06;5077660;28;20051;-87
2022/06/18 09:08:59;;;;;;;6.18;4.93;;;;;;;27.51;50.36;101570.78;5077957;28;20045;-88
2022/06/18 09:11:41;;;;;;;8.57;4.80;;;;;;;27.51;50.71;101573.50;5078096;28;20045;-87
2022/06/18 09:14:14;;;;;;;6.70;4.65;;;;;;;27.51;51.10;101581.66;5092561;28;20049;-84
2022/06/18 09:16:53;;;;;;;4.80;4.38;;;;;;;27.50;51.02;101577.22;5077361;28;20048;-87
2022/06/18 09:19:25;;;;;;;10.65;4.85;;;;;;;27.50;51.06;101588.09;5075749;28;20055;-86
2022/06/18 09:21:55;;;;;;;5.32;4.72;;;;;;;27.50;51.03;101581.81;5093122;28;20120;-85
2022/06/18 09:24:49;;;;;;;8.77;5.00;;;;;;;27.49;51.40;101575.53;5078741;28;20041;-90
2022/06/18 09:27:25;;;;;;;5.15;4.65;;;;;;;27.50;51.25;101579.94;5088908;28;20060;-90
2022/06/18 09:30:02;;;;;;;5.30;4.75;;;;;;;27.50;50.54;101585.38;5077537;28;20045;-91
2022/06/18 09:32:48;;;;;;;8.68;5.00;;;;;;;27.55;49.40;101588.47;5076330;28;20404;-85
2022/06/18 09:35:22;;;;;;;7.03;5.10;;;;;;;27.58;50.37;101585.38;5076870;28;20123;-87
2022/06/18 09:37:58;;;;;;;8.02;4.65;;;;;;;27.59;49.50;101581.66;5059553;28;20056;-89
2022/06/18 09:40:32;;;;;;;5.47;4.32;;;;;;;27.61;49.51;101579.63;5075984;28;20061;-88
2022/06/18 09:43:21;;;;;;;5.00;4.50;;;;;;;27.63;49.78;101576.75;5076339;28;20056;-87
2022/06/18 09:45:53;;;;;;;4.68;4.28;;;;;;;27.64;49.42;101577.59;5077532;28;20059;-90
2022/06/18 09:48:20;;;;;;;7.00;5.05;;;;;;;27.66;49.49;101575.53;5075915;28;20053;-89
2022/06/18 09:50:51;;;;;;;5.20;4.55;;;;;;;27.65;49.48;101577.41;5060182;28;20060;-89
2022/06/18 09:53:31;;;;;;;5.32;4.78;;;;;;;27.65;50.34;101571.13;5059252;28;20052;-88
2022/06/18 09:56:06;;;;;;;6.30;4.57;;;;;;;27.68;50.40;101571.63;5074909;28;20041;-88
2022/06/18 09:58:38;;;;;;;5.15;4.20;;;;;;;27.69;50.10;101572.50;5075868;28;20044;-80
2022/06/18 10:01:08;;;;;;;5.78;4.80;;;;;;;27.70;50.14;101576.91;5075513;28;20052;-81
2022/06/18 10:09:51;;;;;;;7.47;4.07;;;;;;;27.69;49.52;101573.34;5015515;28;20045;-81
2022/06/18 10:12:19;;;;;;;5.82;4.22;;;;;;;27.71;46.97;101578.59;5033645;28;20042;-79
2022/06/18 10:15:00;;;;;;;5.38;4.57;;;;;;;27.73;47.31;101577.44;5034502;28;20041;-79
2022/06/18 10:17:30;;;;;;;4.40;3.97;;;;;;;27.75;45.91;101574.56;5033879;28;20056;-80
2022/06/18 10:20:19;;;;;;;8.73;5.00;;;;;;;27.81;44.78;101573.88;5033869;28;20160;-86
2022/06/18 10:23:30;;;;;;;5.57;4.65;;;;;;;27.88;44.78;101569.47;5033979;28;20080;-82
2022/06/18 10:26:00;;;;;;;5.82;4.80;;;;;;;27.91;44.28;101571.81;4994414;28;20054;-79
2022/06/18 10:28:38;;;;;;;6.10;4.68;;;;;;;27.95;44.93;101577.78;4993919;28;20054;-82
2022/06/18 10:31:20;;;;;;;6.63;4.45;;;;;;;27.97;45.23;101568.44;4993977;28;20058;-79
2022/06/18 10:34:25;;;;;;;6.47;4.65;;;;;;;28.04;44.02;101574.91;4993101;28;20063;-79
2022/06/18 10:37:11;;;;;;;7.03;5.18;;;;;;;28.02;46.88;101566.03;4978048;28;20426;-80
2022/06/18 10:40:28;;;;;;;5.18;4.65;;;;;;;27.99;46.60;101560.94;4994898;28;20061;-82
2022/06/18 10:43:37;;;;;;;9.68;5.22;;;;;;;27.96;46.89;101555.84;4952533;28;20062;-83
2022/06/18 10:46:12;;;;;;;6.95;4.13;;;;;;;27.97;44.19;101552.09;4946343;29;20047;-81
2022/06/18 10:48:46;;;;;;;6.10;4.57;;;;;;;28.04;43.75;101557.72;4954467;29;20191;-80
2022/06/18 10:51:17;;;;;;;5.35;4.85;;;;;;;28.10;44.03;101559.75;4954026;29;20055;-80
2022/06/18 10:53:46;;;;;;;5.03;4.53;;;;;;;28.08;45.26;101561.78;4960749;28;20062;-80
2022/06/18 10:56:17;;;;;;;5.40;4.88;;;;;;;28.05;45.45;101554.81;4974838;28;20537;-80
2022/06/18 10:58:48;;;;;;;6.72;4.13;;;;;;;28.01;45.28;101553.47;4974371;28;20065;-80
2022/06/18 11:01:25;;;;;;;6.53;4.43;;;;;;;28.00;44.06;101549.03;5012649;28;20080;-80
2022/06/18 11:03:59;;;;;;;6.80;4.60;;;;;;;28.07;41.91;101541.03;4996843;28;20061;-81
2022/06/18 11:06:27;;;;;;;6.50;4.47;;;;;;;28.07;43.94;101544.59;5013934;28;20038;-81
2022/06/18 11:08:57;;;;;;;5.57;4.72;;;;;;;28.06;41.58;101540.16;5013566;28;20533;-81
2022/06/18 11:11:29;;;;;;;4.43;4.03;;;;;;;28.08;43.22;101535.41;5010069;28;20050;-80
2022/06/18 11:14:08;;;;;;;4.32;3.92;;;;;;;28.06;43.31;101528.44;4997571;28;20058;-80
2022/06/18 11:16:43;;;;;;;6.07;4.15;;;;;;;28.05;44.72;101526.75;5013334;28;20069;-79
2022/06/18 11:19:28;;;;;;;5.90;4.45;;;;;;;28.09;43.19;101534.38;5000295;28;20046;-80
2022/06/18 11:22:06;;;;;;;6.20;4.63;;;;;;;28.17;42.71;101529.97;5016534;28;20058;-81
2022/06/18 11:24:37;;;;;;;5.63;4.53;;;;;;;28.16;44.38;101531.00;5074250;28;20048;-79
2022/06/18 11:27:11;;;;;;;6.05;4.80;;;;;;;28.17;44.46;101530.81;5074683;28;20067;-79
2022/06/18 11:29:50;;;;;;;5.00;4.30;;;;;;;28.23;43.03;101523.81;5073889;28;20052;-80
2022/06/18 11:32:25;;;;;;;10.35;4.40;;;;;;;28.25;43.45;101521.78;5074280;28;20053;-79
2022/06/18 11:35:09;;;;;;;5.75;4.57;;;;;;;28.23;44.26;101518.34;5072780;28;20075;-79
2022/06/18 11:37:36;;;;;;;4.90;4.25;;;;;;;28.19;44.94;101519.72;5073587;28;20498;-79
2022/06/18 11:40:06;;;;;;;5.30;3.50;;;;;;;28.16;44.05;101520.94;5073636;28;20048;-79
2022/06/18 11:42:42;;;;;;;5.10;4.70;;;;;;;28.19;42.40;101517.00;5073572;28;20049;-79
2022/06/18 11:45:17;;;;;;;7.28;4.25;;;;;;;28.25;40.94;101506.28;5073443;28;20388;-80
2022/06/18 11:48:00;;;;;;;6.25;4.72;;;;;;;28.27;41.09;101506.94;5072461;28;20053;-82
2022/06/18 11:50:33;;;;;;;5.65;4.15;;;;;;;28.27;42.56;101503.38;5073163;28;20534;-79
2022/06/18 11:53:24;;;;;;;6.55;4.03;;;;;;;28.31;41.26;101504.72;5072553;28;20040;-77
2022/06/18 11:55:55;;;;;;;6.97;4.15;;;;;;;28.31;40.54;101499.28;5070588;28;20047;-77
2022/06/18 11:58:48;;;;;;;5.53;4.40;;;;;;;28.39;40.37;101490.25;5073107;28;20067;-84
2022/06/18 12:01:18;;;;;;;6.60;4.22;;;;;;;28.43;41.18;101489.72;5071283;28;20056;-77
2022/06/18 12:08:26;;;;;;;5.13;3.80;;;;;;;28.39;42.12;101469.31;5065274;28;20047;-79
2022/06/18 12:11:10;;;;;;;4.45;3.80;;;;;;;28.38;42.66;101473.06;5073206;28;20040;-80
2022/06/18 12:13:42;;;;;;;5.88;4.20;;;;;;;28.45;42.13;101474.06;5086660;28;20044;-82
2022/06/18 12:16:26;;;;;;;5.40;4.57;;;;;;;28.52;41.45;101474.19;5092379;28;20085;-81
2022/06/18 12:18:59;;;;;;;5.30;4.72;;;;;;;28.65;40.70;101474.50;5094291;28;20048;-82